createdAt,value
2023-04-24T00:01:44.866Z,12.10
2023-04-24T00:06:50.461Z,12.00
2023-04-24T00:11:52.233Z,12.00
2023-04-24T00:16:53.979Z,12.00
2023-04-24T00:21:56.147Z,11.90
2023-04-24T00:26:58.402Z,11.80
2023-04-24T00:32:00.630Z,11.90
2023-04-24T00:37:02.453Z,11.80
2023-04-24T00:42:06.569Z,11.90
2023-04-24T00:47:08.776Z,11.80
2023-04-24T00:52:11.816Z,11.80
2023-04-24T00:57:16.222Z,11.80
2023-04-24T01:02:18.393Z,11.80
2023-04-24T01:07:23.495Z,11.80
2023-04-24T01:12:26.863Z,11.80
2023-04-24T01:17:28.667Z,11.70
2023-04-24T01:22:30.582Z,11.80
2023-04-24T01:27:32.539Z,11.80
2023-04-24T01:32:34.563Z,11.70
2023-04-24T01:37:38.160Z,11.70
2023-04-24T01:42:42.540Z,11.80
2023-04-24T01:47:46.039Z,11.80
2023-04-24T01:52:47.897Z,11.70
2023-04-24T01:57:50.825Z,11.80
2023-04-24T02:02:53.133Z,11.80
2023-04-24T02:07:55.152Z,11.80
2023-04-24T02:12:56.870Z,11.80
2023-04-24T02:17:59.972Z,11.80
2023-04-24T02:23:01.910Z,11.80
2023-04-24T02:28:04.300Z,11.70
2023-04-24T02:33:06.487Z,11.80
2023-04-24T02:38:08.290Z,11.70
2023-04-24T02:43:11.597Z,11.80
2023-04-24T02:48:13.379Z,11.70
2023-04-24T02:53:15.503Z,11.80
2023-04-24T02:58:18.172Z,11.80
2023-04-24T03:03:20.062Z,11.80
2023-04-24T03:08:22.005Z,11.80
2023-04-24T03:13:24.427Z,11.90
2023-04-24T03:18:26.475Z,11.90
2023-04-24T03:23:28.499Z,11.90
2023-04-24T03:28:30.552Z,12.00
2023-04-24T03:33:35.514Z,12.00
2023-04-24T03:38:37.480Z,12.10
2023-04-24T03:43:55.620Z,12.20
2023-04-24T03:48:57.486Z,12.20
2023-04-24T03:54:04.235Z,12.30
2023-04-24T03:59:08.267Z,12.30
2023-04-24T04:04:12.028Z,12.40
2023-04-24T04:09:15.219Z,12.50
2023-04-24T04:14:17.001Z,12.50
2023-04-24T04:19:22.265Z,12.50
2023-04-24T04:24:25.215Z,12.60
2023-04-24T04:29:28.049Z,12.60
2023-04-24T04:34:30.806Z,12.70
2023-04-24T04:39:33.449Z,12.70
2023-04-24T04:44:41.784Z,12.70
2023-04-24T04:49:47.460Z,12.60
2023-04-24T04:54:55.179Z,12.70
2023-04-24T04:59:59.842Z,12.80
2023-04-24T05:05:15.031Z,12.80
2023-04-24T05:10:17.266Z,12.80
2023-04-24T05:15:19.554Z,12.80
2023-04-24T05:20:21.635Z,12.80
2023-04-24T05:25:24.299Z,12.80
2023-04-24T05:30:31.484Z,12.80
2023-04-24T05:35:33.435Z,12.80
2023-04-24T05:40:36.554Z,12.80
2023-04-24T05:45:39.160Z,12.90
2023-04-24T05:50:41.079Z,12.90
2023-04-24T05:55:42.809Z,12.90
2023-04-24T06:00:47.232Z,12.90
2023-04-24T06:05:51.870Z,13.00
2023-04-24T06:10:53.829Z,13.00
2023-04-24T06:15:57.435Z,13.20
2023-04-24T06:21:08.161Z,13.20
2023-04-24T06:26:10.120Z,13.30
2023-04-24T06:31:11.889Z,13.40
2023-04-24T06:36:14.263Z,13.60
2023-04-24T06:41:16.020Z,13.60
2023-04-24T06:46:17.938Z,13.70
2023-04-24T06:51:19.735Z,13.80
2023-04-24T06:56:21.752Z,14.10
2023-04-24T07:01:23.606Z,14.40
2023-04-24T07:06:25.661Z,14.60
2023-04-24T07:11:30.132Z,14.90
2023-04-24T07:16:31.978Z,15.20
2023-04-24T07:21:33.780Z,15.30
2023-04-24T07:26:35.847Z,15.40
2023-04-24T07:31:38.255Z,15.70
2023-04-24T07:36:40.208Z,15.90
2023-04-24T07:41:41.881Z,16.10
2023-04-24T07:46:43.729Z,15.80
2023-04-24T07:51:46.308Z,15.70
2023-04-24T07:56:48.158Z,15.80
2023-04-24T08:01:49.847Z,15.90
2023-04-24T08:06:51.586Z,16.00
2023-04-24T08:11:54.247Z,16.20
2023-04-24T08:17:01.248Z,16.60
2023-04-24T08:22:05.046Z,16.80
2023-04-24T08:27:06.810Z,16.80
2023-04-24T08:32:08.546Z,16.80
2023-04-24T08:37:11.010Z,16.80
2023-04-24T08:42:13.895Z,17.10
2023-04-24T08:47:17.017Z,17.30
2023-04-24T08:52:20.663Z,17.50
2023-04-24T08:57:23.268Z,17.50
2023-04-24T09:02:25.821Z,17.70
2023-04-24T09:07:30.112Z,18.00
2023-04-24T09:12:31.922Z,18.10
2023-04-24T09:17:35.259Z,18.20
2023-04-24T09:22:37.595Z,18.60
2023-04-24T09:27:44.898Z,18.50
2023-04-24T09:32:46.715Z,18.40
2023-04-24T09:37:49.826Z,18.20
2023-04-24T09:42:58.732Z,18.40
2023-04-24T09:48:01.306Z,18.10
2023-04-24T09:53:05.547Z,18.40
2023-04-24T09:58:09.465Z,18.30
2023-04-24T10:03:12.608Z,18.10
2023-04-24T10:08:14.818Z,18.60
2023-04-24T10:13:17.027Z,18.50
2023-04-24T10:18:20.594Z,18.60
2023-04-24T10:23:24.130Z,18.40
2023-04-24T10:28:26.996Z,18.30
2023-04-24T10:33:31.558Z,18.70
2023-04-24T10:38:33.470Z,18.80
2023-04-24T10:43:35.479Z,18.90
2023-04-24T10:48:44.771Z,18.80
2023-04-24T10:53:46.403Z,18.60
2023-04-24T10:58:54.240Z,18.20
2023-04-24T11:04:02.963Z,18.10
2023-04-24T11:09:07.167Z,18.30
2023-04-24T11:14:09.504Z,18.20
2023-04-24T11:19:20.017Z,18.70
2023-04-24T11:24:25.748Z,19.00
2023-04-24T11:29:40.791Z,19.20
2023-04-24T11:34:42.600Z,18.90
2023-04-24T11:39:44.589Z,18.70
2023-04-24T11:44:48.593Z,18.60
2023-04-24T11:49:52.406Z,17.40
2023-04-24T11:54:54.441Z,16.90
2023-04-24T11:59:56.723Z,16.80
2023-04-24T12:04:58.742Z,17.30
2023-04-24T12:10:01.416Z,17.60
2023-04-24T12:15:09.237Z,17.60
2023-04-24T12:20:12.616Z,17.70
2023-04-24T12:25:19.609Z,17.90
2023-04-24T12:30:21.901Z,18.20
2023-04-24T12:35:26.424Z,18.80
2023-04-24T12:40:29.891Z,19.30
2023-04-24T12:45:31.636Z,19.50
2023-04-24T12:50:33.455Z,19.30
2023-04-24T12:55:35.334Z,19.50
2023-04-24T13:00:37.699Z,19.50
2023-04-24T13:05:39.455Z,19.50
2023-04-24T13:10:42.030Z,19.50
2023-04-24T13:15:43.974Z,19.90
2023-04-24T13:20:48.298Z,19.80
2023-04-24T13:25:50.297Z,20.10
2023-04-24T13:30:52.565Z,20.60
2023-04-24T13:35:54.597Z,21.20
2023-04-24T13:40:56.287Z,21.80
2023-04-24T13:45:58.239Z,21.50
2023-04-24T13:50:59.997Z,21.10
2023-04-24T13:56:01.811Z,22.10
2023-04-24T14:01:04.430Z,22.60
2023-04-24T14:06:07.539Z,23.10
2023-04-24T14:11:09.566Z,23.20
2023-04-24T14:16:12.125Z,23.30
2023-04-24T14:21:13.976Z,23.20
2023-04-24T14:26:15.760Z,23.30
2023-04-24T14:31:17.579Z,22.20
2023-04-24T14:36:19.687Z,21.80
2023-04-24T14:41:21.370Z,22.10
2023-04-24T14:46:23.188Z,22.20
2023-04-24T14:51:25.313Z,21.60
2023-04-24T14:56:27.120Z,20.20
2023-04-24T15:01:29.078Z,19.80
2023-04-24T15:06:32.518Z,19.50
2023-04-24T15:11:34.273Z,19.30
2023-04-24T15:16:36.300Z,19.20
2023-04-24T15:21:38.671Z,19.10
2023-04-24T15:26:40.525Z,18.70
2023-04-24T15:31:42.555Z,18.40
2023-04-24T15:36:44.266Z,18.50
2023-04-24T15:41:45.997Z,18.40
2023-04-24T15:46:47.937Z,18.00
2023-04-24T15:51:49.653Z,17.70
2023-04-24T15:56:51.673Z,17.40
2023-04-24T16:01:54.576Z,17.30
2023-04-24T16:06:57.663Z,17.10
2023-04-24T16:11:59.397Z,17.10
2023-04-24T16:17:03.067Z,16.90
2023-04-24T16:22:05.135Z,16.60
2023-04-24T16:27:06.978Z,16.60
2023-04-24T16:32:09.512Z,16.50
2023-04-24T16:37:12.244Z,16.50
2023-04-24T16:42:15.254Z,16.50
2023-04-24T16:47:17.227Z,16.40
2023-04-24T16:52:19.062Z,16.20
2023-04-24T16:57:20.969Z,16.00
2023-04-24T17:02:22.789Z,15.70
2023-04-24T17:07:24.563Z,15.30
2023-04-24T17:12:26.358Z,14.80
2023-04-24T17:17:28.226Z,14.50
2023-04-24T17:22:29.969Z,14.40
2023-04-24T17:27:31.822Z,14.20
2023-04-24T17:32:33.620Z,13.90
2023-04-24T17:37:35.955Z,13.70
2023-04-24T17:42:41.222Z,13.50
2023-04-24T17:47:43.126Z,13.30
2023-04-24T17:52:44.857Z,13.20
2023-04-24T17:57:46.692Z,13.10
2023-04-24T18:02:50.686Z,12.90
2023-04-24T18:07:52.466Z,12.80
2023-04-24T18:12:54.543Z,12.90
2023-04-24T18:17:56.504Z,12.70
2023-04-24T18:22:58.258Z,12.50
2023-04-24T18:28:00.098Z,12.30
2023-04-24T18:33:02.026Z,12.30
2023-04-24T18:38:03.894Z,12.20
2023-04-24T18:43:06.350Z,12.10
2023-04-24T18:48:08.281Z,12.00
2023-04-24T18:53:12.991Z,11.90
2023-04-24T18:58:14.817Z,11.70
2023-04-24T19:03:16.766Z,11.70
2023-04-24T19:08:18.679Z,11.40
2023-04-24T19:13:20.583Z,11.10
2023-04-24T19:18:22.509Z,10.90
2023-04-24T19:23:24.348Z,10.80
2023-04-24T19:28:26.067Z,10.80
2023-04-24T19:33:28.606Z,10.70
2023-04-24T19:38:30.328Z,10.60
2023-04-24T19:43:32.063Z,10.70
2023-04-24T19:48:33.841Z,10.70
2023-04-24T19:53:35.748Z,10.70
2023-04-24T19:58:37.471Z,10.70
2023-04-24T20:03:39.648Z,10.60
2023-04-24T20:08:42.672Z,10.60
2023-04-24T20:13:44.581Z,10.50
2023-04-24T20:18:46.371Z,10.40
2023-04-24T20:23:48.217Z,10.20
2023-04-24T20:28:50.518Z,10.00
2023-04-24T20:33:53.035Z,10.00
2023-04-24T20:38:54.721Z,10.00
2023-04-24T20:43:57.488Z,10.00
2023-04-24T20:48:59.609Z,10.00
2023-04-24T20:54:01.482Z,9.90
2023-04-24T20:59:03.317Z,9.90
2023-04-24T21:04:05.121Z,9.70
2023-04-24T21:09:06.867Z,9.70
2023-04-24T21:14:08.658Z,9.70
2023-04-24T21:19:10.467Z,9.60
2023-04-24T21:24:12.218Z,9.50
2023-04-24T21:29:14.009Z,9.50
2023-04-24T21:34:15.988Z,9.50
2023-04-24T21:39:18.223Z,9.40
2023-04-24T21:44:20.031Z,9.40
2023-04-24T21:49:21.954Z,9.50
2023-04-24T21:54:23.681Z,9.50
2023-04-24T21:59:25.561Z,9.50
2023-04-24T22:04:27.564Z,9.50
2023-04-24T22:09:29.494Z,9.40
2023-04-24T22:14:31.200Z,9.40
2023-04-24T22:19:32.930Z,9.40
2023-04-24T22:24:34.790Z,9.30
2023-04-24T22:29:36.862Z,9.30
2023-04-24T22:34:38.535Z,9.20
2023-04-24T22:39:40.344Z,9.20
2023-04-24T22:44:42.330Z,9.20
2023-04-24T22:49:44.078Z,9.20
2023-04-24T22:54:46.010Z,9.10
2023-04-24T22:59:47.720Z,9.10
2023-04-24T23:04:49.450Z,9.00
2023-04-24T23:09:51.205Z,9.10
2023-04-24T23:14:52.979Z,9.10
2023-04-24T23:19:54.755Z,9.20
2023-04-24T23:24:56.583Z,9.10
2023-04-24T23:29:58.325Z,9.10
2023-04-24T23:35:00.133Z,9.10
2023-04-24T23:40:01.891Z,9.20
2023-04-24T23:45:04.357Z,9.20
2023-04-24T23:50:06.772Z,9.20
2023-04-24T23:55:09.314Z,9.20
